Time;durP1;ratioP1;P1;durP2;ratioP2;P2;SDS_P1;SDS_P2;PMS_P1;PMS_P2;Temp;Humidity;BMP_temperature;BMP_pressure;BME280_temperature;BME280_humidity;BME280_pressure;Samples;Min_cycle;Max_cycle;Signal;HPM_P1;HPM_P2
2022/11/15 00:01:14;;;;;;;;;;;;;;;7.66;100.00;97954.97;5121981;28;19990;-59
2022/11/15 00:03:41;;;;;;;;;;;;;;;7.73;100.00;97957.44;5118959;28;20447;-59
2022/11/15 00:06:09;;;;;;;;;;;;;;;7.77;100.00;97943.41;5118448;28;19924;-60
2022/11/15 00:08:35;;;;;;;;;;;;;;;7.80;100.00;97950.13;5121256;28;19971;-59
2022/11/15 00:11:02;;;;;;;;;;;;;;;7.83;100.00;97939.78;5122194;28;19987;-59
2022/11/15 00:13:29;;;;;;;;;;;;;;;7.85;100.00;97942.22;5120570;28;19979;-59
2022/11/15 00:15:57;;;;;;;;;;;;;;;7.86;100.00;97935.84;5118834;28;19987;-60
2022/11/15 00:18:23;;;;;;;;;;;;;;;7.86;100.00;97933.97;5119271;28;19920;-59
2022/11/15 00:20:50;;;;;;;;;;;;;;;7.83;100.00;97931.81;5121830;28;19983;-59
2022/11/15 00:23:17;;;;;;;;;;;;;;;7.86;100.00;97927.88;5115797;28;20003;-59
2022/11/15 00:25:44;;;;;;;;;;;;;;;7.85;100.00;97947.53;5109934;28;19924;-60
2022/11/15 00:28:10;;;;;;;;;;;;;;;7.81;100.00;97933.91;5109743;28;19928;-59
2022/11/15 00:30:36;;;;;;;;;;;;;;;7.79;100.00;97941.34;5100027;28;19928;-59
2022/11/15 00:33:03;;;;;;;;;;;;;;;7.78;100.00;97941.56;5109537;28;19920;-59
2022/11/15 00:35:31;;;;;;;;;;;;;;;7.76;100.00;97941.00;5109316;28;19924;-59
2022/11/15 00:37:58;;;;;;;;;;;;;;;7.78;100.00;97930.94;5109501;28;19928;-59
2022/11/15 00:40:25;;;;;;;;;;;;;;;7.77;100.00;97932.00;5118621;28;20007;-60
2022/11/15 00:42:52;;;;;;;;;;;;;;;7.77;100.00;97932.78;5121501;28;19986;-59
2022/11/15 00:45:18;;;;;;;;;;;;;;;7.75;100.00;97921.59;5121356;28;19947;-58
2022/11/15 00:47:45;;;;;;;;;;;;;;;7.72;100.00;97926.59;5118308;28;19985;-59
2022/11/15 00:50:11;;;;;;;;;;;;;;;7.80;100.00;97920.88;5118425;28;19971;-59
2022/11/15 00:52:37;;;;;;;;;;;;;;;7.73;100.00;97917.56;5120413;28;20023;-59
2022/11/15 00:55:04;;;;;;;;;;;;;;;7.73;100.00;97913.06;5116074;28;19991;-59
2022/11/15 00:57:32;;;;;;;;;;;;;;;7.69;100.00;97916.44;5120492;28;19995;-59
2022/11/15 00:59:58;;;;;;;;;;;;;;;7.71;100.00;97906.38;5126630;28;19949;-60
2022/11/15 01:02:24;;;;;;;;;;;;;;;7.68;100.00;97907.66;5126022;28;19970;-58
2022/11/15 01:04:51;;;;;;;;;;;;;;;7.70;100.00;97910.09;5126324;28;19955;-59
2022/11/15 01:07:17;;;;;;;;;;;;;;;7.64;100.00;97911.88;5125291;28;19987;-58
2022/11/15 01:09:43;;;;;;;;;;;;;;;7.61;100.00;97902.50;5130164;28;20041;-60
2022/11/15 01:12:10;;;;;;;;;;;;;;;7.63;100.00;97914.75;5130058;28;20784;-59
2022/11/15 01:14:37;;;;;;;;;;;;;;;7.60;100.00;97900.94;5128665;28;20010;-60
2022/11/15 01:17:04;;;;;;;;;;;;;;;7.63;100.00;97904.13;5129747;28;20000;-58
2022/11/15 01:19:30;;;;;;;;;;;;;;;7.60;100.00;97900.13;5129475;28;19975;-61
2022/11/15 01:21:56;;;;;;;;;;;;;;;7.60;100.00;97897.47;5128910;28;19955;-59
2022/11/15 01:24:22;;;;;;;;;;;;;;;7.59;100.00;97894.00;5116128;28;19924;-61
2022/11/15 01:26:49;;;;;;;;;;;;;;;7.48;100.00;97892.25;5125010;28;19988;-60
2022/11/15 01:29:15;;;;;;;;;;;;;;;7.51;100.00;97897.06;5124861;28;19979;-60
2022/11/15 01:31:43;;;;;;;;;;;;;;;7.53;100.00;97900.28;5121568;28;19931;-60
2022/11/15 01:34:09;;;;;;;;;;;;;;;7.51;100.00;97886.44;5121198;28;19951;-60
2022/11/15 01:36:35;;;;;;;;;;;;;;;7.51;100.00;97886.44;5123483;28;19955;-58
2022/11/15 01:39:02;;;;;;;;;;;;;;;7.53;100.00;97884.34;5124638;28;20319;-60
2022/11/15 01:41:29;;;;;;;;;;;;;;;7.53;100.00;97876.38;5123297;28;19980;-60
2022/11/15 01:43:57;;;;;;;;;;;;;;;7.51;100.00;97873.16;5121111;28;19959;-59
2022/11/15 01:46:26;;;;;;;;;;;;;;;7.50;100.00;97868.88;5121621;28;19950;-63
2022/11/15 01:48:55;;;;;;;;;;;;;;;7.46;100.00;97866.94;5124579;28;19995;-60
2022/11/15 01:51:23;;;;;;;;;;;;;;;7.27;100.00;97862.97;5105921;28;19923;-60
2022/11/15 01:53:53;;;;;;;;;;;;;;;7.06;100.00;97864.47;5114518;28;19984;-59
2022/11/15 01:56:21;;;;;;;;;;;;;;;7.12;100.00;97855.53;5121178;28;20349;-59
2022/11/15 01:58:48;;;;;;;;;;;;;;;7.18;100.00;97859.88;5124738;28;19949;-60
2022/11/15 02:01:15;;;;;;;;;;;;;;;7.25;100.00;97852.56;5124535;28;20219;-60
2022/11/15 02:03:44;;;;;;;;;;;;;;;7.29;100.00;97856.34;5121196;28;19995;-60
2022/11/15 02:06:12;;;;;;;;;;;;;;;7.29;100.00;97856.34;5120699;28;19932;-60
2022/11/15 02:08:38;;;;;;;;;;;;;;;7.31;100.00;97856.91;5123594;28;19999;-59
2022/11/15 02:11:05;;;;;;;;;;;;;;;7.33;100.00;97852.19;5124171;28;19984;-59
2022/11/15 02:13:31;;;;;;;;;;;;;;;7.35;100.00;97847.41;5122355;28;19983;-60
2022/11/15 02:16:04;;;;;;;;;;;;;;;7.33;100.00;97836.22;5120796;28;19955;-60
2022/11/15 02:18:34;;;;;;;;;;;;;;;7.33;100.00;97833.56;5122217;28;19924;-59
2022/11/15 02:21:08;;;;;;;;;;;;;;;7.33;100.00;97841.53;5123292;28;19924;-59
2022/11/15 02:23:52;;;;;;;;;;;;;;;7.23;100.00;97841.38;5115493;28;20513;-59
2022/11/15 02:26:34;;;;;;;;;;;;;;;7.18;100.00;97843.94;5099180;28;19964;-59
2022/11/15 02:29:04;;;;;;;;;;;;;;;7.23;100.00;97832.63;5122150;27;19966;-60
2022/11/15 02:31:37;;;;;;;;;;;;;;;7.25;100.00;97826.00;5122355;28;19966;-60
2022/11/15 02:34:06;;;;;;;;;;;;;;;7.26;100.00;97817.00;5120308;28;19963;-59
2022/11/15 02:36:38;;;;;;;;;;;;;;;7.15;100.00;97822.41;5122137;28;20460;-60
2022/11/15 02:39:09;;;;;;;;;;;;;;;7.12;100.00;97823.69;5123533;28;19983;-60
2022/11/15 02:41:40;;;;;;;;;;;;;;;7.15;100.00;97823.19;5121300;28;19963;-59
2022/11/15 02:44:09;;;;;;;;;;;;;;;7.17;100.00;97815.81;5120235;28;19979;-58
2022/11/15 02:49:24;;;;;;;;;;;;;;;7.21;100.00;97813.47;5123081;28;19924;-59
2022/11/15 02:51:52;;;;;;;;;;;;;;;7.18;100.00;97812.09;5120122;28;19995;-59
2022/11/15 02:54:20;;;;;;;;;;;;;;;6.76;100.00;97808.25;5113649;28;19991;-58
2022/11/15 02:56:47;;;;;;;;;;;;;;;6.56;100.00;97802.63;5119895;28;19924;-59
2022/11/15 02:59:37;;;;;;;;;;;;;;;6.53;100.00;97805.75;5119842;28;19995;-60
2022/11/15 03:02:13;;;;;;;;;;;;;;;6.53;100.00;97804.69;5119587;28;19988;-59
2022/11/15 03:04:44;;;;;;;;;;;;;;;6.41;100.00;97806.59;5122678;28;19967;-58
2022/11/15 03:07:13;;;;;;;;;;;;;;;6.25;100.00;97803.94;5123316;28;19963;-58
2022/11/15 03:09:43;;;;;;;;;;;;;;;6.02;100.00;97802.16;5120529;28;20000;-59
2022/11/15 03:12:13;;;;;;;;;;;;;;;6.07;100.00;97810.19;5119776;28;19959;-59
2022/11/15 03:14:44;;;;;;;;;;;;;;;6.11;100.00;97806.03;5122522;28;19927;-60
2022/11/15 03:17:14;;;;;;;;;;;;;;;6.11;100.00;97808.69;5123125;28;20011;-60
2022/11/15 03:19:44;;;;;;;;;;;;;;;6.34;100.00;97810.44;5119835;28;19979;-59
2022/11/15 03:22:12;;;;;;;;;;;;;;;6.50;100.00;97812.31;5120622;28;19984;-60
2022/11/15 03:24:39;;;;;;;;;;;;;;;6.56;100.00;97813.22;5114523;28;20032;-60
2022/11/15 03:27:07;;;;;;;;;;;;;;;6.30;100.00;97814.63;5122819;28;19935;-59
2022/11/15 03:29:36;;;;;;;;;;;;;;;6.15;100.00;97803.72;5120740;28;19959;-60
2022/11/15 03:32:04;;;;;;;;;;;;;;;5.97;100.00;97802.06;5118374;28;19991;-60
2022/11/15 03:34:35;;;;;;;;;;;;;;;5.94;100.00;97810.50;5102800;28;20019;-60
2022/11/15 03:37:02;;;;;;;;;;;;;;;6.19;100.00;97807.53;5122782;28;19971;-59
2022/11/15 03:39:29;;;;;;;;;;;;;;;6.17;100.00;97810.41;5121409;28;20014;-60
2022/11/15 03:42:02;;;;;;;;;;;;;;;6.05;100.00;97806.19;5119117;28;20019;-59
2022/11/15 03:44:34;;;;;;;;;;;;;;;6.07;100.00;97807.56;5120414;28;19985;-59
2022/11/15 03:47:04;;;;;;;;;;;;;;;6.21;100.00;97806.25;5122385;28;19995;-59
2022/11/15 03:49:33;;;;;;;;;;;;;;;6.39;100.00;97799.91;5120598;28;20440;-60
2022/11/15 03:52:01;;;;;;;;;;;;;;;6.54;100.00;97794.88;5118927;28;19971;-60
2022/11/15 03:54:27;;;;;;;;;;;;;;;6.53;100.00;97792.47;5113773;28;19960;-60
2022/11/15 03:56:53;;;;;;;;;;;;;;;6.35;100.00;97796.13;5122274;28;20544;-60
2022/11/15 03:59:20;;;;;;;;;;;;;;;6.22;100.00;97796.44;5122025;28;19987;-59
2022/11/15 04:01:46;;;;;;;;;;;;;;;6.15;100.00;97791.28;5118591;28;19968;-59
2022/11/15 04:04:12;;;;;;;;;;;;;;;5.86;100.00;97801.06;5118486;28;19934;-60
2022/11/15 04:06:40;;;;;;;;;;;;;;;5.71;100.00;97794.63;5121163;28;20027;-59
2022/11/15 04:09:06;;;;;;;;;;;;;;;5.98;100.00;97795.72;5121682;28;19965;-59
2022/11/15 04:11:33;;;;;;;;;;;;;;;6.12;100.00;97796.25;5119890;28;19996;-58
2022/11/15 04:13:59;;;;;;;;;;;;;;;6.15;100.00;97793.94;5118334;28;19920;-60
2022/11/15 04:16:25;;;;;;;;;;;;;;;6.19;100.00;97784.44;5119137;28;20015;-60
2022/11/15 04:24:17;;;;;;;;;;;;;;;6.44;100.00;97773.47;5111798;28;20075;-59
2022/11/15 04:26:43;;;;;;;;;;;;;;;6.51;100.00;97766.19;5121716;28;19984;-59
2022/11/15 04:31:53;;;;;;;;;;;;;;;6.63;100.00;97752.81;5134025;27;19964;-58
2022/11/15 04:34:20;;;;;;;;;;;;;;;6.69;100.00;97757.16;5118075;28;20004;-60
2022/11/15 04:39:32;;;;;;;;;;;;;;;6.75;100.00;97753.53;5119777;28;19924;-58
2022/11/15 04:41:58;;;;;;;;;;;;;;;6.75;100.00;97749.06;5117968;28;19928;-60
2022/11/15 04:44:24;;;;;;;;;;;;;;;6.76;100.00;97755.97;5118377;28;19924;-59
2022/11/15 04:46:50;;;;;;;;;;;;;;;6.69;100.00;97757.97;5121428;28;19934;-60
2022/11/15 04:49:17;;;;;;;;;;;;;;;6.66;100.00;97765.59;5121371;28;19924;-60
2022/11/15 04:51:43;;;;;;;;;;;;;;;6.58;100.00;97758.88;5118016;28;19928;-59
2022/11/15 04:54:10;;;;;;;;;;;;;;;6.60;100.00;97764.72;5122494;28;19931;-59
2022/11/15 04:56:37;;;;;;;;;;;;;;;6.63;100.00;97755.47;5120279;28;19970;-59
2022/11/15 04:59:04;;;;;;;;;;;;;;;6.64;100.00;97757.91;5121434;28;20034;-59
2022/11/15 05:01:30;;;;;;;;;;;;;;;6.61;100.00;97752.28;5119503;28;19979;-60
2022/11/15 05:06:40;;;;;;;;;;;;;;;6.60;100.00;97748.00;5120708;28;19924;-59
2022/11/15 05:09:07;;;;;;;;;;;;;;;6.63;100.00;97755.47;5102880;28;19999;-59
2022/11/15 05:11:33;;;;;;;;;;;;;;;6.58;100.00;97750.09;5119219;28;19998;-60
2022/11/15 05:14:01;;;;;;;;;;;;;;;6.63;100.00;97739.56;5117762;28;20699;-59
2022/11/15 05:16:27;;;;;;;;;;;;;;;6.63;100.00;97742.22;5118996;28;19924;-60
2022/11/15 05:18:54;;;;;;;;;;;;;;;6.63;100.00;97742.22;5121237;28;19959;-59
2022/11/15 05:21:20;;;;;;;;;;;;;;;6.60;100.00;97732.09;5120895;28;19928;-59
2022/11/15 05:23:47;;;;;;;;;;;;;;;6.65;100.00;97730.34;5122456;28;20501;-60
2022/11/15 05:26:13;;;;;;;;;;;;;;;6.67;100.00;97725.59;5117623;28;19920;-59
2022/11/15 05:28:40;;;;;;;;;;;;;;;6.64;100.00;97723.41;5120410;28;19966;-60
2022/11/15 05:31:09;;;;;;;;;;;;;;;6.64;100.00;97726.06;5120892;28;19924;-59
2022/11/15 05:33:36;;;;;;;;;;;;;;;6.58;100.00;97732.34;5118772;28;19974;-59
2022/11/15 05:36:05;;;;;;;;;;;;;;;6.58;100.00;97723.56;5117244;28;19924;-60
2022/11/15 05:38:31;;;;;;;;;;;;;;;6.53;100.00;97730.41;5118980;28;19928;-59
2022/11/15 05:40:57;;;;;;;;;;;;;;;6.54;100.00;97723.25;5121192;28;19923;-59
2022/11/15 05:43:24;;;;;;;;;;;;;;;6.54;100.00;97723.25;5120395;28;19924;-59
2022/11/15 05:45:51;;;;;;;;;;;;;;;6.53;100.00;97719.78;5117237;28;19924;-59
2022/11/15 05:48:19;;;;;;;;;;;;;;;6.53;100.00;97709.16;5117345;28;19996;-59
2022/11/15 05:50:47;;;;;;;;;;;;;;;6.53;100.00;97717.13;5108926;28;19921;-59
2022/11/15 05:53:15;;;;;;;;;;;;;;;6.53;100.00;97718.97;5108651;28;19935;-59
2022/11/15 05:55:41;;;;;;;;;;;;;;;6.49;100.00;97729.28;5119538;28;19931;-58
2022/11/15 05:58:08;;;;;;;;;;;;;;;6.55;100.00;97726.72;5120824;28;19987;-59
2022/11/15 06:00:35;;;;;;;;;;;;;;;6.55;100.00;97726.72;5122964;28;20070;-61
2022/11/15 06:03:01;;;;;;;;;;;;;;;6.55;100.00;97721.41;5124452;28;19930;-59
2022/11/15 06:05:28;;;;;;;;;;;;;;;6.53;100.00;97711.81;5123431;28;19924;-60
2022/11/15 06:07:58;;;;;;;;;;;;;;;6.51;100.00;97719.22;5121090;28;19934;-59
2022/11/15 06:10:24;;;;;;;;;;;;;;;6.48;100.00;97717.06;5121487;28;19956;-60
2022/11/15 06:12:56;;;;;;;;;;;;;;;6.45;100.00;97722.84;5124393;28;20351;-58
2022/11/15 06:15:23;;;;;;;;;;;;;;;6.48;100.00;97714.41;5123668;28;19924;-59
2022/11/15 06:17:49;;;;;;;;;;;;;;;6.49;100.00;97708.06;5120946;28;20284;-59
2022/11/15 06:20:15;;;;;;;;;;;;;;;6.39;100.00;97720.34;5120740;28;19956;-60
2022/11/15 06:22:43;;;;;;;;;;;;;;;6.07;100.00;97719.25;5128412;27;20248;-59
2022/11/15 06:25:09;;;;;;;;;;;;;;;5.82;100.00;97722.22;5123810;28;19934;-59
2022/11/15 06:27:36;;;;;;;;;;;;;;;5.77;100.00;97724.78;5121304;28;20326;-60
2022/11/15 06:30:02;;;;;;;;;;;;;;;5.79;100.00;97728.81;5120343;28;20016;-58
2022/11/15 06:32:29;;;;;;;;;;;;;;;5.55;100.00;97716.69;5127870;28;19983;-60
2022/11/15 06:34:56;;;;;;;;;;;;;;;5.48;100.00;97717.88;5123642;28;19924;-60
2022/11/15 06:37:22;;;;;;;;;;;;;;;5.55;100.00;97714.03;5123516;28;19959;-59
2022/11/15 06:39:50;;;;;;;;;;;;;;;5.70;100.00;97716.16;5123801;28;19963;-60
2022/11/15 06:42:16;;;;;;;;;;;;;;;5.91;100.00;97720.88;5123756;28;20006;-60
2022/11/15 06:44:42;;;;;;;;;;;;;;;6.01;100.00;97705.13;5120448;28;20022;-60
2022/11/15 06:47:09;;;;;;;;;;;;;;;6.07;100.00;97711.31;5120258;28;20247;-59
2022/11/15 06:49:35;;;;;;;;;;;;;;;5.98;100.00;97717.00;5122469;28;19931;-58
2022/11/15 06:52:01;;;;;;;;;;;;;;;5.89;100.00;97720.28;5123660;28;19996;-59
2022/11/15 06:54:27;;;;;;;;;;;;;;;5.86;100.00;97723.41;5115000;28;19924;-59
2022/11/15 06:56:55;;;;;;;;;;;;;;;5.88;100.00;97718.69;5123675;28;19995;-60
2022/11/15 06:59:21;;;;;;;;;;;;;;;6.00;100.00;97721.28;5123269;28;19987;-59
2022/11/15 07:01:48;;;;;;;;;;;;;;;6.09;100.00;97731.25;5120091;28;19924;-59
2022/11/15 07:04:14;;;;;;;;;;;;;;;6.20;100.00;97719.78;5119785;28;19920;-59
2022/11/15 07:06:40;;;;;;;;;;;;;;;6.15;100.00;97726.84;5122648;28;19983;-59
2022/11/15 07:09:06;;;;;;;;;;;;;;;6.10;100.00;97724.91;5123412;28;20375;-59
2022/11/15 07:11:33;;;;;;;;;;;;;;;6.18;100.00;97721.88;5121358;28;19923;-59
2022/11/15 07:14:01;;;;;;;;;;;;;;;6.14;100.00;97725.22;5119649;28;19991;-58
2022/11/15 07:16:27;;;;;;;;;;;;;;;5.92;100.00;97727.75;5120730;28;19931;-60
2022/11/15 07:18:54;;;;;;;;;;;;;;;5.84;100.00;97728.13;5123114;28;19923;-60
2022/11/15 07:21:20;;;;;;;;;;;;;;;5.98;100.00;97729.44;5122829;28;19965;-59
2022/11/15 07:23:46;;;;;;;;;;;;;;;6.12;100.00;97722.81;5124392;27;20011;-59
2022/11/15 07:26:13;;;;;;;;;;;;;;;6.21;100.00;97731.19;5101202;28;19935;-59
2022/11/15 07:28:39;;;;;;;;;;;;;;;6.23;100.00;97724.59;5122270;28;19985;-59
2022/11/15 07:31:08;;;;;;;;;;;;;;;6.22;100.00;97725.63;5122815;28;19979;-59
2022/11/15 07:33:34;;;;;;;;;;;;;;;5.98;100.00;97718.84;5120471;28;19928;-60
2022/11/15 07:36:02;;;;;;;;;;;;;;;5.81;100.00;97725.94;5119242;28;19939;-58
2022/11/15 07:38:28;;;;;;;;;;;;;;;5.88;100.00;97721.34;5120363;28;19924;-59
2022/11/15 07:40:57;;;;;;;;;;;;;;;5.81;100.00;97728.59;5122496;28;19978;-59
2022/11/15 07:43:23;;;;;;;;;;;;;;;5.62;100.00;97721.84;5122254;28;19924;-59
2022/11/15 07:45:49;;;;;;;;;;;;;;;5.41;100.00;97715.38;5119327;28;20086;-59
2022/11/15 07:48:17;;;;;;;;;;;;;;;5.13;100.00;97708.19;5119209;28;19924;-59
2022/11/15 07:50:43;;;;;;;;;;;;;;;5.48;100.00;97705.41;5122447;28;19953;-59
2022/11/15 07:53:10;;;;;;;;;;;;;;;5.43;100.00;97714.09;5127243;27;19924;-59
2022/11/15 07:55:37;;;;;;;;;;;;;;;5.47;100.00;97718.91;5119949;28;19932;-58
2022/11/15 07:58:03;;;;;;;;;;;;;;;5.38;100.00;97713.97;5118954;28;20569;-59
2022/11/15 08:00:30;;;;;;;;;;;;;;;5.29;100.00;97706.66;5120510;28;19924;-60
2022/11/15 08:03:02;;;;;;;;;;;;;;;5.42;100.00;97701.88;5122451;28;19960;-59
2022/11/15 08:05:29;;;;;;;;;;;;;;;5.37;100.00;97707.09;5121025;28;19967;-59
2022/11/15 08:07:56;;;;;;;;;;;;;;;5.34;100.00;97704.91;5119096;28;19934;-59
2022/11/15 08:10:22;;;;;;;;;;;;;;;5.32;100.00;97704.31;5119281;28;19963;-59
2022/11/15 08:12:48;;;;;;;;;;;;;;;5.27;100.00;97706.88;5122333;28;19924;-58
2022/11/15 08:15:14;;;;;;;;;;;;;;;5.35;100.00;97713.66;5122383;28;20018;-59
2022/11/15 08:17:41;;;;;;;;;;;;;;;5.62;100.00;97705.97;5100557;28;19983;-59
2022/11/15 08:20:08;;;;;;;;;;;;;;;5.77;100.00;97698.28;5118567;28;19955;-58
2022/11/15 08:22:36;;;;;;;;;;;;;;;5.91;100.00;97689.06;5125459;27;20026;-59
2022/11/15 08:25:02;;;;;;;;;;;;;;;5.92;100.00;97688.81;5122135;28;19999;-59
2022/11/15 08:27:29;;;;;;;;;;;;;;;5.78;100.00;97694.63;5120396;28;20575;-59
2022/11/15 08:29:56;;;;;;;;;;;;;;;5.74;100.00;97698.78;5118374;28;19931;-60
2022/11/15 08:32:22;;;;;;;;;;;;;;;5.68;100.00;97697.88;5118953;28;19946;-59
2022/11/15 08:34:49;;;;;;;;;;;;;;;5.65;100.00;97692.25;5121723;28;19924;-60
2022/11/15 08:37:15;;;;;;;;;;;;;;;5.75;100.00;97689.78;5122030;28;19963;-60
2022/11/15 08:39:43;;;;;;;;;;;;;;;5.89;100.00;97680.53;5118935;28;19939;-59
2022/11/15 08:42:09;;;;;;;;;;;;;;;5.99;100.00;97680.72;5118430;28;19983;-59
2022/11/15 08:44:35;;;;;;;;;;;;;;;5.98;100.00;97676.44;5120771;28;19989;-59
2022/11/15 08:47:02;;;;;;;;;;;;;;;6.07;100.00;97674.19;5121976;28;19938;-59
2022/11/15 08:49:28;;;;;;;;;;;;;;;6.14;100.00;97683.63;5120691;28;20024;-59
2022/11/15 08:51:54;;;;;;;;;;;;;;;6.10;100.00;97677.19;5118579;28;19984;-60
2022/11/15 08:54:21;;;;;;;;;;;;;;;6.08;100.00;97673.97;5123442;28;19956;-59
2022/11/15 08:56:48;;;;;;;;;;;;;;;6.08;100.00;97676.63;5121846;28;19935;-59
2022/11/15 08:59:15;;;;;;;;;;;;;;;6.17;100.00;97677.84;5121925;28;19924;-59
2022/11/15 09:01:41;;;;;;;;;;;;;;;6.24;100.00;97675.03;5119009;28;19949;-59
2022/11/15 09:04:07;;;;;;;;;;;;;;;6.24;100.00;97673.19;5118209;28;19948;-59
2022/11/15 09:06:34;;;;;;;;;;;;;;;6.20;100.00;97666.75;5120449;28;19955;-60
2022/11/15 09:09:01;;;;;;;;;;;;;;;6.24;100.00;97665.22;5121816;28;19928;-59
2022/11/15 09:11:27;;;;;;;;;;;;;;;6.27;100.00;97659.44;5120699;28;19934;-59
2022/11/15 09:13:55;;;;;;;;;;;;;;;6.19;100.00;97659.81;5118029;28;20010;-59
2022/11/15 09:16:21;;;;;;;;;;;;;;;6.24;100.00;97654.63;5118331;28;19988;-59
2022/11/15 09:18:47;;;;;;;;;;;;;;;6.20;100.00;97648.19;5121662;28;19983;-60
2022/11/15 09:21:14;;;;;;;;;;;;;;;6.23;100.00;97647.69;5121590;28;20561;-59
2022/11/15 09:23:40;;;;;;;;;;;;;;;6.21;100.00;97649.00;5123647;28;20023;-59
2022/11/15 09:26:06;;;;;;;;;;;;;;;6.14;100.00;97638.53;5117944;28;19924;-59
2022/11/15 09:28:33;;;;;;;;;;;;;;;6.17;100.00;97635.41;5119838;28;19975;-60
2022/11/15 09:31:02;;;;;;;;;;;;;;;6.16;100.00;97631.16;5124308;28;19923;-59
2022/11/15 09:33:28;;;;;;;;;;;;;;;6.19;100.00;97630.66;5124109;28;19924;-58
2022/11/15 09:35:55;;;;;;;;;;;;;;;6.24;100.00;97629.94;5121432;28;19988;-58
2022/11/15 09:38:21;;;;;;;;;;;;;;;6.25;100.00;97634.22;5122547;28;19980;-59
2022/11/15 09:40:49;;;;;;;;;;;;;;;6.36;100.00;97628.81;5129879;28;19934;-59
2022/11/15 09:43:28;;;;;;;;;;;;;;;6.29;100.00;97627.38;5121860;28;19979;-59
2022/11/15 09:45:58;;;;;;;;;;;;;;;6.43;100.00;97624.16;5113271;28;19924;-59
2022/11/15 09:48:32;;;;;;;;;;;;;;;6.57;100.00;97621.13;5113061;28;19924;-58
2022/11/15 09:51:01;;;;;;;;;;;;;;;6.39;100.00;97623.03;5113090;28;19930;-59
2022/11/15 09:53:30;;;;;;;;;;;;;;;6.67;100.00;97619.44;5111702;28;19958;-59
2022/11/15 09:55:59;;;;;;;;;;;;;;;6.73;100.00;97623.78;5112397;28;19983;-59
2022/11/15 09:58:27;;;;;;;;;;;;;;;6.75;100.00;97616.34;5113018;28;20005;-59
2022/11/15 10:00:54;;;;;;;;;;;;;;;6.82;100.00;97616.19;5121574;28;19931;-59
2022/11/15 10:03:24;;;;;;;;;;;;;;;6.92;100.00;97611.00;5121455;28;20010;-59
2022/11/15 10:05:54;;;;;;;;;;;;;;;7.24;100.00;97609.25;5124805;28;19923;-58
2022/11/15 10:08:29;;;;;;;;;;;;;;;7.26;100.00;97612.47;5124631;28;19979;-59
2022/11/15 10:10:57;;;;;;;;;;;;;;;7.16;100.00;97609.69;5122279;28;20038;-59
2022/11/15 10:13:24;;;;;;;;;;;;;;;7.15;100.00;97600.13;5131326;28;19979;-60
2022/11/15 10:15:52;;;;;;;;;;;;;;;7.14;100.00;97603.84;5128519;28;19951;-59
2022/11/15 10:18:19;;;;;;;;;;;;;;;7.32;100.00;97590.25;5130294;28;20023;-60
2022/11/15 10:20:50;;;;;;;;;;;;;;;7.53;100.00;97592.03;5123536;28;20030;-59
2022/11/15 10:23:19;;;;;;;;;;;;;;;7.65;100.00;97577.78;5129445;27;19924;-58
2022/11/15 10:25:45;;;;;;;;;;;;;;;7.56;100.00;97580.91;5112557;28;19987;-59
2022/11/15 10:28:15;;;;;;;;;;;;;;;7.54;100.00;97574.25;5112522;28;19967;-58
2022/11/15 10:30:42;;;;;;;;;;;;;;;7.39;100.00;97558.97;5112408;28;19924;-58
2022/11/15 10:33:15;;;;;;;;;;;;;;;7.75;100.00;97556.63;5112606;28;20552;-59
2022/11/15 10:35:41;;;;;;;;;;;;;;;7.98;100.00;97550.97;5112048;28;19924;-59
2022/11/15 10:38:08;;;;;;;;;;;;;;;8.03;100.00;97541.16;5112071;28;19935;-59
2022/11/15 10:40:36;;;;;;;;;;;;;;;8.22;100.00;97538.09;5111423;28;20380;-59
2022/11/15 10:43:07;;;;;;;;;;;;;;;8.37;100.00;97523.06;5112259;28;19995;-59
2022/11/15 10:45:34;;;;;;;;;;;;;;;8.51;100.00;97526.06;5112087;28;19980;-60
2022/11/15 10:48:15;;;;;;;;;;;;;;;8.32;100.00;97515.06;5112125;28;19984;-60
2022/11/15 10:50:42;;;;;;;;;;;;;;;8.20;100.00;97509.06;5111937;28;19924;-60
2022/11/15 10:53:16;;;;;;;;;;;;;;;8.52;100.00;97498.38;5111801;28;19999;-60
2022/11/15 10:55:47;;;;;;;;;;;;;;;8.01;100.00;97495.44;5120328;28;19928;-58
2022/11/15 10:58:21;;;;;;;;;;;;;;;7.94;100.00;97494.03;5120181;28;19988;-58
2022/11/15 11:00:47;;;;;;;;;;;;;;;8.38;100.00;97490.06;5111824;28;19980;-59
2022/11/15 11:03:26;;;;;;;;;;;;;;;8.76;100.00;97482.78;5111773;28;19951;-59
2022/11/15 11:06:03;;;;;;;;;;;;;;;8.93;100.00;97476.16;5116432;28;19935;-60
2022/11/15 11:08:30;;;;;;;;;;;;;;;8.56;100.00;97472.84;5122155;28;19979;-59
2022/11/15 11:10:58;;;;;;;;;;;;;;;8.83;100.00;97467.34;5119971;28;20007;-59
2022/11/15 11:13:25;;;;;;;;;;;;;;;9.04;100.00;97459.13;5120516;28;20349;-60
2022/11/15 11:15:54;;;;;;;;;;;;;;;9.18;100.00;97452.25;5123449;28;19995;-59
2022/11/15 11:18:27;;;;;;;;;;;;;;;9.34;100.00;97463.72;5123302;28;19928;-59
2022/11/15 11:20:57;;;;;;;;;;;;;;;9.33;100.00;97464.78;5119851;28;19924;-59
2022/11/15 11:23:34;;;;;;;;;;;;;;;9.45;100.00;97454.66;5130609;27;20018;-59
2022/11/15 11:26:12;;;;;;;;;;;;;;;9.54;100.00;97447.72;5119557;28;20015;-60
2022/11/15 11:28:42;;;;;;;;;;;;;;;9.59;100.00;97439.72;5122228;28;20023;-58
2022/11/15 11:31:16;;;;;;;;;;;;;;;9.72;100.00;97446.38;5123277;28;19955;-58
2022/11/15 11:33:47;;;;;;;;;;;;;;;9.77;100.00;97433.84;5119957;28;19928;-60
2022/11/15 11:36:19;;;;;;;;;;;;;;;9.91;100.00;97433.28;5119460;28;19967;-59
2022/11/15 11:38:52;;;;;;;;;;;;;;;9.93;100.00;97425.81;5111227;28;19991;-59
2022/11/15 11:41:27;;;;;;;;;;;;;;;10.10;100.00;97419.09;5111111;28;20012;-60
2022/11/15 11:44:01;;;;;;;;;;;;;;;10.05;100.00;97419.13;5097788;28;19984;-58
2022/11/15 11:46:38;;;;;;;;;;;;;;;10.24;100.00;97409.47;5121886;28;19928;-59
2022/11/15 11:49:09;;;;;;;;;;;;;;;10.34;100.00;97405.19;5119518;28;19939;-59
2022/11/15 11:51:39;;;;;;;;;;;;;;;10.41;100.00;97408.34;5120597;28;21320;-58
2022/11/15 11:54:11;;;;;;;;;;;;;;;9.87;100.00;97402.91;5113175;28;19924;-58
2022/11/15 11:56:40;;;;;;;;;;;;;;;10.03;100.00;97397.25;5121380;28;19950;-59
2022/11/15 11:59:10;;;;;;;;;;;;;;;10.15;100.00;97394.31;5122588;28;19991;-59
2022/11/15 12:01:40;;;;;;;;;;;;;;;10.21;100.00;97398.56;5127352;28;19986;-59
2022/11/15 12:04:10;;;;;;;;;;;;;;;10.10;100.00;97392.41;5119195;28;19988;-60
2022/11/15 12:06:40;;;;;;;;;;;;;;;9.54;100.00;97393.59;5103706;28;19959;-59
2022/11/15 12:09:12;;;;;;;;;;;;;;;9.99;100.00;97392.72;5122546;28;19934;-60
2022/11/15 12:11:44;;;;;;;;;;;;;;;10.22;100.00;97376.13;5119821;28;19987;-58
2022/11/15 12:14:14;;;;;;;;;;;;;;;10.13;100.00;97378.56;5119137;28;19948;-59
2022/11/15 12:16:43;;;;;;;;;;;;;;;10.30;100.00;97370.25;5121785;28;20007;-58
2022/11/15 12:19:09;;;;;;;;;;;;;;;10.45;100.00;97372.03;5122301;28;19924;-59
2022/11/15 12:21:40;;;;;;;;;;;;;;;10.55;100.00;97362.06;5120206;28;19956;-60
2022/11/15 12:24:09;;;;;;;;;;;;;;;10.19;100.00;97363.31;5124007;27;19963;-59
2022/11/15 12:26:38;;;;;;;;;;;;;;;10.28;100.00;97348.34;5102897;28;19980;-60
2022/11/15 12:29:10;;;;;;;;;;;;;;;10.52;100.00;97351.19;5122305;28;19935;-59
2022/11/15 12:31:39;;;;;;;;;;;;;;;10.30;100.00;97351.56;5119917;28;19930;-60
2022/11/15 12:34:14;;;;;;;;;;;;;;;10.56;100.00;97342.31;5118518;28;19924;-58
2022/11/15 12:36:41;;;;;;;;;;;;;;;10.75;100.00;97335.25;5121124;28;19987;-59
2022/11/15 12:39:09;;;;;;;;;;;;;;;10.77;100.00;97329.63;5121752;28;19988;-60
2022/11/15 12:41:36;;;;;;;;;;;;;;;10.96;100.00;97335.91;5119870;28;19989;-59
2022/11/15 12:44:03;;;;;;;;;;;;;;;11.00;100.00;97330.81;5118485;28;19979;-60
2022/11/15 12:46:48;;;;;;;;;;;;;;;10.93;100.00;97325.78;5119665;28;19924;-59
2022/11/15 12:49:42;;;;;;;;;;;;;;;11.01;100.00;97319.03;5121751;28;19924;-59
2022/11/15 12:52:10;;;;;;;;;;;;;;;11.16;100.00;97308.22;5109718;28;20002;-59
2022/11/15 12:54:57;;;;;;;;;;;;;;;11.19;100.00;97307.66;5112322;28;20032;-60
2022/11/15 12:57:30;;;;;;;;;;;;;;;10.94;100.00;97310.53;5121306;28;19924;-59
2022/11/15 12:59:58;;;;;;;;;;;;;;;11.22;100.00;97301.75;5118380;28;20342;-59
2022/11/15 13:02:25;;;;;;;;;;;;;;;11.26;100.00;97306.25;5118723;28;19924;-60
2022/11/15 13:04:52;;;;;;;;;;;;;;;11.26;100.00;97303.56;5124787;28;19955;-59
2022/11/15 13:07:33;;;;;;;;;;;;;;;11.24;100.00;97308.41;5125887;28;19996;-60